Auburn, KS

9:20 PM CDT on September 14, 2014 (GMT -0500)
South Pointe Bay Estates | Change Station
CLOSE
Current Station
Personal Weather Station
Location: Auburn, KS
Elevation: 1096 ft
Nearby Weather Stations

Elev 1096 ft 38.95 °N, 95.80 °W | Updated 13 minutes ago

Overcast
Overcast
64.9 °F
Feels Like 64.9 °F
N
2.0
Wind Variable Wind from ESE
Gusts 6.0 mph

Today
High -- | Low -- °F
--% Chance of Precip.
Yesterday
High -- | Low -- °F
Precip. -- in
7:03 AM 7:33 PM
Waning Gibbous, 60% visible
Pressure 30.06 in
Visibility 10.0 miles
Clouds Overcast 4400 ft
Dew Point 59 °F
Humidity 81%
Rainfall 0.00 in
Snow Depth Not available.
UV 0.0 out of 12
Pollen 7.70 out of 12
Air Quality Not available.
Flu Activity Not available.
METAR KFOE 150153Z 14007KT 10SM OVC044 19/14 A3007 RMK AO2 SLP178 T01890139

More Conditions Fewer Conditions

Pressure 30.06 in
Visibility 10.0 miles
Clouds Overcast 4400 ft
Dew Point 59 °F
Humidity 81%
Rainfall 0.00 in
Snow Depth Not available.
UV 0.0 out of 12
Pollen 7.70 out of 12
Air Quality Not available.
Flu Activity Not available.
METAR KFOE 150153Z 14007KT 10SM OVC044 19/14 A3007 RMK AO2 SLP178 T01890139

More Conditions Fewer Conditions

10-Day Weather Forecast

Almanac

Astronomy

Sep. 14, 2014 Rise Set
Actual Time 7:03 AM CDT 7:33 PM CDT
Civil Twilight 6:37 AM CDT 7:59 PM CDT
Nautical Twilight 6:05 AM CDT 8:31 PM CDT
Astronomical Twilight 5:33 AM CDT 9:03 PM CDT
Moon 11:29 PM CDT (9/14) 1:07 PM CDT (9/14)
Length of Visible Light 13h 22m
Length of Day
12h 29m
Tomorrow will be 2m 31s shorter.
Waning Gibbous, 60% of the Moon is Illuminated
Today
Waning Gibbous
Sep 15
Last Quarter
Sep 24
New
Oct 1
First Quarter
Oct 8
Full

Today's Extremes

State Highs State Lows

Community

WunderPhotos

Upload Photos

1,753,381 photos uploaded!

Nearby

Snow Depth

Station Depth Elevation
No new snow has been reported.

Earthquake Activity

City Distance Mag. Time & Date
Caldwell, Kansas 171 miles 2.6 10:55 AM CDT
2014-09-11
Minimum magnitude displayed is 2.5.

Coastal Water Temperatures

Place Temperature
No Stations Reporting

Nearby Weather Stations